Terminal Aerodrome Forecast
Issued by NWS

Home | Current Version | Previous Version | Text Only | Print | Product List | Glossary On
Versions: 1 2 3 4 5 6 7 8 9 10 11 12 13 14 15 16 17 18 19 20 21 22 23 24 25 26
000
FTUS41 KBOX 052324
TAFACK
TAF
KACK 052324Z 0600/0624 14006KT P6SM SCT080
     FM060300 00000KT P6SM BKN070
     FM061000 04007KT P6SM BKN070
     FM061400 09006KT P6SM BKN080
     FM061700 13006KT P6SM BKN140
     FM062000 17006KT P6SM SCT130=

USA.gov is the U.S. government's official web portal to all federal, state and local government web resources and services.